createdAt,value
2022-09-12T00:01:26.809Z,97859.11
2022-09-12T00:05:01.792Z,97855.82
2022-09-12T00:08:39.204Z,97852.20
2022-09-12T00:12:15.668Z,97855.54
2022-09-12T00:15:52.382Z,97849.55
2022-09-12T00:19:47.905Z,97851.83
2022-09-12T00:23:09.984Z,97852.69
2022-09-12T00:26:47.006Z,97850.89
2022-09-12T00:30:43.954Z,97852.79
2022-09-12T00:34:05.561Z,97855.71
2022-09-12T00:37:42.361Z,97858.17
2022-09-12T00:41:24.258Z,97857.77
2022-09-12T00:45:26.601Z,97855.33
2022-09-12T00:49:01.751Z,97854.64
2022-09-12T00:52:43.506Z,97854.41
2022-09-12T00:56:07.376Z,97855.35
2022-09-12T01:00:04.567Z,97857.20
2022-09-12T01:03:46.816Z,97854.64
2022-09-12T01:07:08.953Z,97856.01
2022-09-12T01:10:45.774Z,97858.07
2022-09-12T01:14:41.241Z,97860.36
2022-09-12T01:18:41.584Z,97856.73
2022-09-12T01:23:13.583Z,97860.41
2022-09-12T01:27:14.637Z,97860.99
2022-09-12T01:31:05.902Z,97860.01
2022-09-12T01:34:46.876Z,97860.39
2022-09-12T01:38:25.522Z,97858.19
2022-09-12T01:42:00.281Z,97862.16
2022-09-12T01:45:59.824Z,97866.33
2022-09-12T01:49:36.849Z,97862.94
2022-09-12T01:53:43.454Z,97864.73
2022-09-12T01:57:12.990Z,97863.50
2022-09-12T02:00:50.195Z,97867.90
2022-09-12T02:04:22.830Z,97869.45
2022-09-12T02:08:06.820Z,97867.56
2022-09-12T02:11:36.618Z,97870.86
2022-09-12T02:15:12.410Z,97871.46
2022-09-12T02:18:50.769Z,97875.74
2022-09-12T02:22:43.491Z,97872.41
2022-09-12T02:26:30.033Z,97876.38
2022-09-12T02:29:53.565Z,97878.87
2022-09-12T02:33:46.280Z,97874.96
2022-09-12T02:37:32.514Z,97876.42
2022-09-12T02:41:18.076Z,97873.13
2022-09-12T02:44:58.708Z,97868.89
2022-09-12T02:48:42.890Z,97868.27
2022-09-12T02:52:24.247Z,97872.36
2022-09-12T02:55:46.043Z,97875.95
2022-09-12T02:59:24.971Z,97874.13
2022-09-12T03:03:27.016Z,97873.77
2022-09-12T03:06:58.732Z,97875.48
2022-09-12T03:11:02.820Z,97878.65
2022-09-12T03:14:53.214Z,97878.65
2022-09-12T03:18:29.729Z,97882.95
2022-09-12T03:22:04.726Z,97885.41
2022-09-12T03:25:58.437Z,97886.12
2022-09-12T03:29:21.693Z,97884.84
2022-09-12T03:33:18.957Z,97884.48
2022-09-12T03:36:41.624Z,97885.08
2022-09-12T03:40:17.934Z,97888.94
2022-09-12T03:44:13.113Z,97888.91
2022-09-12T03:47:54.499Z,97890.92
2022-09-12T03:51:15.930Z,97891.06
2022-09-12T03:54:52.707Z,97895.96
2022-09-12T03:58:30.947Z,97898.86
2022-09-12T04:02:25.232Z,97902.85
2022-09-12T04:05:47.539Z,97902.13
2022-09-12T04:09:23.931Z,97901.21
2022-09-12T04:13:18.927Z,97905.09
2022-09-12T04:17:00.610Z,97905.42
2022-09-12T04:20:43.319Z,97914.40
2022-09-12T04:24:05.145Z,97912.30
2022-09-12T04:27:41.706Z,97911.74
2022-09-12T04:31:20.766Z,97917.34
2022-09-12T04:35:14.079Z,97917.33
2022-09-12T04:38:36.234Z,97920.02
2022-09-12T04:42:12.590Z,97922.10
2022-09-12T04:46:11.446Z,97923.77
2022-09-12T04:49:52.142Z,97923.36
2022-09-12T04:53:14.014Z,97926.40
2022-09-12T04:56:52.289Z,97927.42
2022-09-12T05:00:46.446Z,97930.30
2022-09-12T05:04:10.854Z,97930.70
2022-09-12T05:07:45.083Z,97934.64
2022-09-12T05:11:41.150Z,97942.15
2022-09-12T05:15:10.173Z,97942.96
2022-09-12T05:18:48.940Z,97943.85
2022-09-12T05:22:42.495Z,97946.41
2022-09-12T05:26:06.351Z,97943.11
2022-09-12T05:29:58.451Z,97945.48
2022-09-12T05:33:24.922Z,97946.46
2022-09-12T05:37:16.616Z,97954.23
2022-09-12T05:40:38.372Z,97952.29
2022-09-12T05:44:15.552Z,97957.67
2022-09-12T05:47:54.270Z,97961.54
2022-09-12T05:51:32.967Z,97959.31
2022-09-12T05:55:06.011Z,97960.82
2022-09-12T05:58:44.777Z,97958.34
2022-09-12T06:02:19.171Z,97956.64
2022-09-12T06:06:18.050Z,97957.35
2022-09-12T06:09:39.929Z,97953.91
2022-09-12T06:13:16.648Z,97950.33
2022-09-12T06:17:12.182Z,97953.41
2022-09-12T06:20:37.025Z,97961.15
2022-09-12T06:24:30.383Z,97960.51
2022-09-12T06:28:10.688Z,97958.71
2022-09-12T06:31:34.727Z,97963.95
2022-09-12T06:35:28.636Z,97967.83
2022-09-12T06:39:12.653Z,97971.14
2022-09-12T06:42:34.621Z,97974.81
2022-09-12T06:46:12.380Z,97981.87
2022-09-12T06:49:48.304Z,97978.06
2022-09-12T06:53:45.242Z,97977.32
2022-09-12T06:57:08.418Z,97974.45
2022-09-12T07:00:44.102Z,97976.50
2022-09-12T07:04:20.975Z,97975.04
2022-09-12T07:07:59.234Z,97972.91
2022-09-12T07:11:36.670Z,97978.58
2022-09-12T07:15:11.419Z,97984.44
2022-09-12T07:18:52.480Z,97983.20
2022-09-12T07:22:24.464Z,97984.16
2022-09-12T07:26:01.950Z,97983.80
2022-09-12T07:29:56.972Z,97986.25
2022-09-12T07:33:39.404Z,97987.30
2022-09-12T07:37:01.346Z,97990.67
2022-09-12T07:40:37.830Z,97988.73
2022-09-12T07:44:14.704Z,97994.94
2022-09-12T07:47:54.355Z,97994.89
2022-09-12T07:51:30.153Z,97994.00
2022-09-12T07:55:06.182Z,97996.24
2022-09-12T07:58:43.367Z,97999.15
2022-09-12T08:02:38.612Z,97994.48
2022-09-12T08:06:08.402Z,97992.42
2022-09-12T08:09:37.872Z,97994.63
2022-09-12T08:13:14.373Z,97993.63
2022-09-12T08:17:09.632Z,98000.75
2022-09-12T08:20:31.431Z,98006.79
2022-09-12T08:24:08.908Z,98006.21
2022-09-12T08:27:46.846Z,98007.48
2022-09-12T08:31:25.258Z,98008.46
2022-09-12T08:34:58.409Z,98002.77
2022-09-12T08:38:37.124Z,98001.48
2022-09-12T08:43:02.101Z,97999.83
2022-09-12T08:46:34.741Z,97999.91
2022-09-12T08:50:10.306Z,98004.25
2022-09-12T08:53:57.749Z,98009.38
2022-09-12T08:57:19.222Z,98009.05
2022-09-12T09:01:23.981Z,98006.96
2022-09-12T09:04:52.845Z,98003.05
2022-09-12T09:09:01.433Z,98000.98
2022-09-12T09:12:33.618Z,98002.09
2022-09-12T09:16:17.358Z,98005.20
2022-09-12T09:19:51.027Z,98002.86
2022-09-12T09:23:28.383Z,98002.83
2022-09-12T09:27:02.525Z,98005.48
2022-09-12T09:30:49.747Z,98007.60
2022-09-12T09:34:33.682Z,98007.75
2022-09-12T09:38:27.296Z,98007.94
2022-09-12T09:42:05.565Z,98010.90
2022-09-12T09:45:29.745Z,98009.73
2022-09-12T09:49:26.669Z,98002.89
2022-09-12T09:53:47.092Z,98007.09
2022-09-12T09:57:34.007Z,98011.66
2022-09-12T10:01:06.263Z,98015.57
2022-09-12T10:04:56.961Z,98017.77
2022-09-12T10:08:38.603Z,98013.17
2022-09-12T10:12:19.479Z,98012.55
2022-09-12T10:16:04.831Z,98010.96
2022-09-12T10:19:36.747Z,98010.88
2022-09-12T10:23:29.480Z,98013.33
2022-09-12T10:27:05.666Z,98017.46
2022-09-12T10:30:29.639Z,98012.29
2022-09-12T10:34:16.033Z,98010.95
2022-09-12T10:37:52.333Z,98006.09
2022-09-12T10:41:22.017Z,98011.59
2022-09-12T10:44:57.122Z,98008.05
2022-09-12T10:48:33.838Z,98012.55
2022-09-12T10:52:17.949Z,98019.11
2022-09-12T10:56:12.474Z,98014.48
2022-09-12T10:59:41.216Z,98007.81
2022-09-12T11:03:25.041Z,98008.90
2022-09-12T11:07:02.188Z,98006.94
2022-09-12T11:10:44.402Z,98008.52
2022-09-12T11:14:44.317Z,98005.98
2022-09-12T11:18:23.798Z,98017.84
2022-09-12T11:21:57.778Z,98017.33
2022-09-12T11:25:45.668Z,98015.59
2022-09-12T11:29:26.497Z,98010.45
2022-09-12T11:33:21.878Z,98018.06
2022-09-12T11:37:17.828Z,98013.39
2022-09-12T11:40:44.508Z,98014.09
2022-09-12T11:44:42.193Z,98019.09
2022-09-12T11:48:36.653Z,98010.06
2022-09-12T11:52:23.158Z,98012.30
2022-09-12T11:55:53.847Z,98019.23
2022-09-12T11:59:59.356Z,98026.07
2022-09-12T12:03:33.272Z,98024.25
2022-09-12T12:07:06.092Z,98028.27
2022-09-12T12:10:35.784Z,98023.87
2022-09-12T12:14:42.086Z,98023.90
2022-09-12T12:18:29.582Z,98025.67
2022-09-12T12:21:52.345Z,98024.03
2022-09-12T12:25:56.736Z,98018.55
2022-09-12T12:29:21.820Z,98015.90
2022-09-12T12:33:16.089Z,98015.02
2022-09-12T12:36:41.066Z,98022.98
2022-09-12T12:40:23.609Z,98020.14
2022-09-12T12:44:44.688Z,98021.19
2022-09-12T12:48:25.191Z,98015.93
2022-09-12T12:52:01.589Z,98009.77
2022-09-12T12:55:33.908Z,98008.95
2022-09-12T12:59:04.904Z,98008.80
2022-09-12T13:03:10.106Z,98015.25
2022-09-12T13:06:37.998Z,98012.48
2022-09-12T13:10:29.525Z,98009.44
2022-09-12T13:14:46.963Z,98000.55
2022-09-12T13:18:25.144Z,98001.83
2022-09-12T13:22:09.570Z,98003.09
2022-09-12T13:25:59.985Z,97996.98
2022-09-12T13:29:40.810Z,97990.04
2022-09-12T13:33:32.008Z,97991.45
2022-09-12T13:37:04.839Z,97992.42
2022-09-12T13:40:55.879Z,97987.42
2022-09-12T13:44:45.067Z,97984.33
2022-09-12T13:48:25.665Z,97985.66
2022-09-12T13:52:00.212Z,97984.45
2022-09-12T13:55:48.409Z,97984.71
2022-09-12T13:59:12.869Z,97982.59
2022-09-12T14:02:48.551Z,97983.09
2022-09-12T14:06:25.105Z,97987.59
2022-09-12T14:10:01.699Z,97985.55
2022-09-12T14:13:57.232Z,97983.24
2022-09-12T14:17:26.129Z,97984.36
2022-09-12T14:21:33.521Z,97980.93
2022-09-12T14:24:56.987Z,97978.35
2022-09-12T14:28:33.751Z,97972.89
2022-09-12T14:32:22.268Z,97971.86
2022-09-12T14:36:07.195Z,97973.63
2022-09-12T14:39:48.590Z,97969.20
2022-09-12T14:43:30.748Z,97968.91
2022-09-12T14:46:53.327Z,97965.45
2022-09-12T14:50:51.476Z,97966.71
2022-09-12T14:54:35.539Z,97954.73
2022-09-12T14:58:19.149Z,97958.78
2022-09-12T15:01:41.183Z,97957.31
2022-09-12T15:05:21.391Z,97956.52
2022-09-12T15:09:13.629Z,97950.27
2022-09-12T15:13:04.867Z,97949.34
2022-09-12T15:16:45.639Z,97951.86
2022-09-12T15:20:26.690Z,97950.65
2022-09-12T15:24:08.567Z,97951.19
2022-09-12T15:27:53.067Z,97955.28
2022-09-12T15:31:34.118Z,97952.65
2022-09-12T15:34:56.773Z,97960.30
2022-09-12T15:38:52.632Z,97964.30
2022-09-12T15:42:16.117Z,97968.72
2022-09-12T15:45:51.729Z,97967.48
2022-09-12T15:49:28.352Z,97969.29
2022-09-12T15:53:05.036Z,97971.27
2022-09-12T15:56:41.592Z,97968.91
2022-09-12T16:00:19.606Z,97971.05
2022-09-12T16:04:23.044Z,97974.54
2022-09-12T16:07:45.093Z,97976.30
2022-09-12T16:11:40.719Z,97980.11
2022-09-12T16:15:24.263Z,97980.00
2022-09-12T16:18:47.115Z,97972.90
2022-09-12T16:22:22.960Z,97976.16
2022-09-12T16:26:18.682Z,97979.86
2022-09-12T16:29:40.564Z,97977.71
2022-09-12T16:33:37.701Z,97976.73
2022-09-12T16:36:59.509Z,97976.65
2022-09-12T16:41:02.629Z,97972.56
2022-09-12T16:44:43.404Z,97976.62
2022-09-12T16:48:24.429Z,97968.63
2022-09-12T16:52:05.641Z,97973.29
2022-09-12T16:55:31.403Z,97974.64
2022-09-12T16:59:05.428Z,97975.40
2022-09-12T17:03:00.103Z,97976.17
2022-09-12T17:06:42.020Z,97975.45
2022-09-12T17:10:04.257Z,97980.23
2022-09-12T17:14:03.397Z,97971.27
2022-09-12T17:17:25.132Z,97975.56
2022-09-12T17:21:01.674Z,97986.70
2022-09-12T17:24:39.008Z,97985.19
2022-09-12T17:28:15.764Z,97984.66
2022-09-12T17:31:52.243Z,97988.77
2022-09-12T17:35:29.212Z,97994.77
2022-09-12T17:39:05.775Z,97993.70
2022-09-12T17:43:01.974Z,98001.09
2022-09-12T17:46:26.787Z,98003.48
2022-09-12T17:50:27.356Z,98007.59
2022-09-12T17:53:43.858Z,98006.32
2022-09-12T17:57:39.714Z,98004.91
2022-09-12T18:01:30.822Z,98009.66
2022-09-12T18:05:12.556Z,98011.42
2022-09-12T18:08:34.743Z,98013.34
2022-09-12T18:12:11.542Z,98014.50
2022-09-12T18:15:48.228Z,98010.86
2022-09-12T18:19:25.216Z,98010.16
2022-09-12T18:23:01.753Z,98012.30
2022-09-12T18:26:39.013Z,98014.37
2022-09-12T18:30:34.006Z,98019.55
2022-09-12T18:34:18.020Z,98020.29
2022-09-12T18:37:58.258Z,98020.41
2022-09-12T18:41:23.021Z,98018.81
2022-09-12T18:44:56.930Z,98014.70
2022-09-12T18:48:55.005Z,98010.08
2022-09-12T18:52:19.002Z,98013.81
2022-09-12T18:56:01.337Z,98016.39
2022-09-12T18:59:30.481Z,98017.55
2022-09-12T19:03:26.319Z,98016.29
2022-09-12T19:06:48.686Z,98016.00
2022-09-12T19:10:25.839Z,98020.00
2022-09-12T19:14:02.381Z,98021.30
2022-09-12T19:17:38.728Z,98024.05
2022-09-12T19:21:18.100Z,98019.05
2022-09-12T19:25:13.117Z,98020.00
2022-09-12T19:28:54.877Z,98020.20
2022-09-12T19:32:16.768Z,98026.17
2022-09-12T19:35:53.924Z,98023.98
2022-09-12T19:39:49.373Z,98018.99
2022-09-12T19:43:12.118Z,98013.03
2022-09-12T19:46:48.337Z,98007.28
2022-09-12T19:50:25.422Z,97999.00
2022-09-12T19:54:20.697Z,97999.42
2022-09-12T19:57:43.088Z,98000.84
2022-09-12T20:01:30.007Z,97999.45
2022-09-12T20:04:56.252Z,97998.95
2022-09-12T20:08:34.000Z,97999.13
2022-09-12T20:12:11.050Z,97995.34
2022-09-12T20:15:46.312Z,97995.59
2022-09-12T20:19:42.022Z,97990.91
2022-09-12T20:23:24.823Z,97989.34
2022-09-12T20:27:05.730Z,97987.21
2022-09-12T20:30:46.930Z,97983.70
2022-09-12T20:34:27.785Z,97982.18
2022-09-12T20:38:08.581Z,97979.56
2022-09-12T20:41:49.256Z,97977.00
2022-09-12T20:45:29.722Z,97980.61
2022-09-12T20:49:10.641Z,97978.60
2022-09-12T20:52:32.615Z,97973.67
2022-09-12T20:56:09.350Z,97975.56
2022-09-12T20:59:46.237Z,97969.19
2022-09-12T21:03:23.330Z,97970.72
2022-09-12T21:06:59.828Z,97970.09
2022-09-12T21:10:36.297Z,97969.20
2022-09-12T21:14:13.367Z,97964.17
2022-09-12T21:17:50.292Z,97966.98
2022-09-12T21:21:27.074Z,97966.66
2022-09-12T21:25:03.729Z,97973.08
2022-09-12T21:28:40.406Z,97966.05
2022-09-12T21:32:17.722Z,97970.30
2022-09-12T21:35:54.173Z,97976.23
2022-09-12T21:39:30.468Z,97977.59
2022-09-12T21:43:12.363Z,97973.66
2022-09-12T21:46:44.151Z,97968.30
2022-09-12T21:50:21.273Z,97964.73
2022-09-12T21:54:16.641Z,97959.02
2022-09-12T21:57:38.901Z,97958.23
2022-09-12T22:01:15.251Z,97954.16
2022-09-12T22:04:52.234Z,97950.69
2022-09-12T22:08:47.880Z,97947.34
2022-09-12T22:12:09.457Z,97947.81
2022-09-12T22:15:50.861Z,97946.48
2022-09-12T22:19:23.563Z,97941.56
2022-09-12T22:23:22.414Z,97942.06
2022-09-12T22:26:46.605Z,97943.16
2022-09-12T22:30:23.581Z,97942.14
2022-09-12T22:34:00.172Z,97944.17
2022-09-12T22:37:36.999Z,97942.84
2022-09-12T22:41:14.323Z,97940.52
2022-09-12T22:44:50.531Z,97935.38
2022-09-12T22:48:27.803Z,97935.39
2022-09-12T22:52:04.327Z,97938.08
2022-09-12T22:56:00.567Z,97938.69
2022-09-12T22:59:22.463Z,97938.86
2022-09-12T23:03:01.980Z,97943.55
2022-09-12T23:06:37.142Z,97941.73
2022-09-12T23:10:35.815Z,97939.27
2022-09-12T23:14:16.560Z,97934.89
2022-09-12T23:17:59.239Z,97928.98
2022-09-12T23:21:40.367Z,97931.38
2022-09-12T23:25:03.370Z,97932.10
2022-09-12T23:29:00.478Z,97930.06
2022-09-12T23:32:41.682Z,97929.05
2022-09-12T23:36:11.408Z,97925.56
2022-09-12T23:39:40.305Z,97922.48
2022-09-12T23:43:17.497Z,97921.84
2022-09-12T23:46:54.197Z,97924.54
2022-09-12T23:50:30.414Z,97916.70
2022-09-12T23:54:26.497Z,97912.31
2022-09-12T23:58:08.301Z,97915.75
